Time;durP1;ratioP1;P1;durP2;ratioP2;P2;SDS_P1;SDS_P2;PMS_P1;PMS_P2;Temp;Humidity;BMP_temperature;BMP_pressure;BME280_temperature;BME280_humidity;BME280_pressure;Samples;Min_cycle;Max_cycle;Signal;HPM_P1;HPM_P2
2024/01/23 00:00:46;;;;;;;;;;;9.50;99.90;;;;;;7336419;19;111041;-70
2024/01/23 00:03:13;;;;;;;;;;;9.50;99.90;;;;;;7333846;19;109155;-70
2024/01/23 00:05:40;;;;;;;;;;;9.50;99.90;;;;;;7338480;19;110074;-69
2024/01/23 00:08:09;;;;;;;;;;;9.40;99.90;;;;;;7336090;19;109576;-71
2024/01/23 00:10:37;;;;;;;;;;;9.40;99.90;;;;;;7338872;19;110950;-71
2024/01/23 00:13:04;;;;;;;;;;;9.40;99.90;;;;;;7335457;19;108807;-71
2024/01/23 00:15:31;;;;;;;;;;;9.40;99.90;;;;;;7336268;19;109785;-71
2024/01/23 00:17:58;;;;;;;;;;;9.50;99.90;;;;;;7333057;19;109218;-71
2024/01/23 00:20:26;;;;;;;;;;;9.50;99.90;;;;;;7333981;19;108810;-70
2024/01/23 00:22:53;;;;;;;;;;;9.50;99.90;;;;;;7336876;19;110174;-72
2024/01/23 00:25:20;;;;;;;;;;;9.40;99.90;;;;;;7334723;19;109853;-71
2024/01/23 00:27:47;;;;;;;;;;;9.40;99.90;;;;;;7336981;19;108496;-71
2024/01/23 00:30:14;;;;;;;;;;;9.40;99.90;;;;;;7340006;19;109077;-71
2024/01/23 00:32:42;;;;;;;;;;;9.40;99.90;;;;;;7334807;19;109434;-71
2024/01/23 00:35:09;;;;;;;;;;;9.40;99.90;;;;;;7332775;19;109066;-71
2024/01/23 00:37:37;;;;;;;;;;;9.40;99.90;;;;;;7334891;19;109522;-71
2024/01/23 00:40:04;;;;;;;;;;;9.30;99.90;;;;;;7333400;19;108460;-71
2024/01/23 00:42:32;;;;;;;;;;;9.30;99.90;;;;;;7336805;19;113340;-71
2024/01/23 00:44:59;;;;;;;;;;;9.30;99.90;;;;;;7334102;19;109145;-72
2024/01/23 00:47:26;;;;;;;;;;;9.30;99.90;;;;;;7334277;19;108685;-72
2024/01/23 00:49:53;;;;;;;;;;;9.30;99.90;;;;;;7334264;19;109802;-71
2024/01/23 00:52:21;;;;;;;;;;;9.20;99.90;;;;;;7341917;19;108828;-71
2024/01/23 00:54:48;;;;;;;;;;;9.20;99.90;;;;;;7332444;19;111080;-71
2024/01/23 00:57:15;;;;;;;;;;;9.20;99.90;;;;;;7336179;19;109216;-71
2024/01/23 00:59:42;;;;;;;;;;;9.20;99.90;;;;;;7333987;19;109574;-71
2024/01/23 01:02:09;;;;;;;;;;;9.20;99.90;;;;;;7335731;19;109195;-72
2024/01/23 01:04:41;;;;;;;;;;;9.20;99.90;;;;;;7332501;19;108785;-76
2024/01/23 01:07:10;;;;;;;;;;;9.20;99.90;;;;;;7333813;19;108884;-72
2024/01/23 01:09:37;;;;;;;;;;;9.20;99.90;;;;;;7333941;19;109566;-76
2024/01/23 01:12:05;;;;;;;;;;;9.10;99.90;;;;;;7334042;19;108530;-73
2024/01/23 01:14:34;;;;;;;;;;;9.10;99.90;;;;;;7338148;19;108633;-71
2024/01/23 01:17:01;;;;;;;;;;;9.10;99.90;;;;;;7333213;19;108662;-72
2024/01/23 01:19:28;;;;;;;;;;;9.10;99.90;;;;;;7332322;19;109158;-71
2024/01/23 01:34:35;;;;;;;;;;;9.00;99.90;;;;;;7336472;19;108520;-71
2024/01/23 01:37:03;;;;;;;;;;;8.90;99.90;;;;;;7333277;19;110772;-71
2024/01/23 01:39:30;;;;;;;;;;;8.90;99.90;;;;;;7338194;19;110340;-71
2024/01/23 01:41:57;;;;;;;;;;;8.90;99.90;;;;;;7332421;19;109436;-70
2024/01/23 01:44:24;;;;;;;;;;;8.90;99.90;;;;;;7329517;19;110835;-71
2024/01/23 01:46:52;;;;;;;;;;;8.90;99.90;;;;;;7336008;19;108720;-70
2024/01/23 01:49:22;;;;;;;;;;;8.90;99.90;;;;;;7329052;19;112261;-70
2024/01/23 01:51:49;;;;;;;;;;;8.90;99.90;;;;;;7330841;19;109430;-71
2024/01/23 01:54:19;;;;;;;;;;;8.90;99.90;;;;;;7332526;19;108886;-71
2024/01/23 01:56:46;;;;;;;;;;;8.90;99.90;;;;;;7333466;19;108680;-71
2024/01/23 01:59:13;;;;;;;;;;;8.80;99.90;;;;;;7332646;19;111286;-71
2024/01/23 02:01:41;;;;;;;;;;;8.80;99.90;;;;;;7339829;19;109251;-71
2024/01/23 02:04:08;;;;;;;;;;;8.80;99.90;;;;;;7333577;19;110543;-71
2024/01/23 02:06:36;;;;;;;;;;;8.80;99.90;;;;;;7340595;19;110038;-71
2024/01/23 02:09:03;;;;;;;;;;;8.80;99.90;;;;;;7338854;19;108439;-70
2024/01/23 02:11:30;;;;;;;;;;;8.80;99.90;;;;;;7340556;19;109915;-70
2024/01/23 02:13:58;;;;;;;;;;;8.80;99.90;;;;;;7341094;19;109023;-70
2024/01/23 02:16:25;;;;;;;;;;;8.80;99.90;;;;;;7339343;19;110999;-70
2024/01/23 02:18:52;;;;;;;;;;;8.70;99.90;;;;;;7340941;19;110235;-70
2024/01/23 02:21:20;;;;;;;;;;;8.70;99.90;;;;;;7341171;19;108944;-71
2024/01/23 02:23:47;;;;;;;;;;;8.70;99.90;;;;;;7344166;19;108602;-71
2024/01/23 02:26:14;;;;;;;;;;;8.70;99.90;;;;;;7338942;19;109916;-70
2024/01/23 02:28:42;;;;;;;;;;;8.70;99.90;;;;;;7343763;19;108688;-71
2024/01/23 02:31:09;;;;;;;;;;;8.70;99.90;;;;;;7339650;19;110541;-71
2024/01/23 02:33:36;;;;;;;;;;;8.70;99.90;;;;;;7338890;19;108816;-70
2024/01/23 02:36:04;;;;;;;;;;;8.60;99.90;;;;;;7338565;19;109158;-70
2024/01/23 02:38:31;;;;;;;;;;;8.60;99.90;;;;;;7337739;19;109142;-70
2024/01/23 02:40:59;;;;;;;;;;;8.60;99.90;;;;;;7335702;19;109648;-71
2024/01/23 02:43:26;;;;;;;;;;;8.60;99.90;;;;;;7342861;19;108471;-70
2024/01/23 02:45:54;;;;;;;;;;;8.60;99.90;;;;;;7340065;19;108751;-70
2024/01/23 02:48:21;;;;;;;;;;;8.60;99.90;;;;;;7335004;19;109418;-72
2024/01/23 02:50:48;;;;;;;;;;;8.60;99.90;;;;;;7338214;19;109084;-75
2024/01/23 02:53:16;;;;;;;;;;;8.60;99.90;;;;;;7337987;19;109056;-73
2024/01/23 02:55:43;;;;;;;;;;;8.60;99.90;;;;;;7340818;19;108690;-71
2024/01/23 02:58:10;;;;;;;;;;;8.50;99.90;;;;;;7340732;19;109608;-71
2024/01/23 03:00:39;;;;;;;;;;;8.50;99.90;;;;;;7339687;19;108775;-72
2024/01/23 03:03:07;;;;;;;;;;;8.50;99.90;;;;;;7338382;19;109834;-72
2024/01/23 03:05:35;;;;;;;;;;;8.50;99.90;;;;;;7343782;19;110480;-71
2024/01/23 03:08:02;;;;;;;;;;;8.40;99.90;;;;;;7339992;19;108738;-71
2024/01/23 03:10:30;;;;;;;;;;;8.50;99.90;;;;;;7338583;19;110652;-71
2024/01/23 03:12:57;;;;;;;;;;;8.40;99.90;;;;;;7340181;19;108502;-70
2024/01/23 03:15:25;;;;;;;;;;;8.40;99.90;;;;;;7337109;19;109175;-70
2024/01/23 03:17:52;;;;;;;;;;;8.40;99.90;;;;;;7337399;19;110685;-70
2024/01/23 03:20:20;;;;;;;;;;;8.40;99.90;;;;;;7334301;19;110278;-71
2024/01/23 03:22:47;;;;;;;;;;;8.40;99.90;;;;;;7339973;19;109259;-71
2024/01/23 03:25:14;;;;;;;;;;;8.40;99.90;;;;;;7338576;19;109321;-71
2024/01/23 03:27:42;;;;;;;;;;;8.40;99.90;;;;;;7344828;19;111153;-71
2024/01/23 03:30:26;;;;;;;;;;;8.30;99.90;;;;;;7336956;19;111320;-71
2024/01/23 03:32:53;;;;;;;;;;;8.30;99.90;;;;;;7331956;19;109613;-72
2024/01/23 03:35:20;;;;;;;;;;;8.30;99.90;;;;;;7334929;19;110026;-71
2024/01/23 03:37:47;;;;;;;;;;;8.30;99.90;;;;;;7333812;19;110111;-71
2024/01/23 03:40:15;;;;;;;;;;;8.30;99.90;;;;;;7335456;19;110527;-70
2024/01/23 03:42:42;;;;;;;;;;;8.20;99.90;;;;;;7336236;19;110961;-71
2024/01/23 03:45:09;;;;;;;;;;;8.30;99.90;;;;;;7336700;19;109635;-71
2024/01/23 03:47:36;;;;;;;;;;;8.20;99.90;;;;;;7335378;19;108771;-70
2024/01/23 03:50:03;;;;;;;;;;;8.20;99.90;;;;;;7344772;19;108595;-71
2024/01/23 03:52:31;;;;;;;;;;;8.20;99.90;;;;;;7334227;19;108941;-70
2024/01/23 03:55:01;;;;;;;;;;;8.10;99.90;;;;;;7334365;19;110349;-70
2024/01/23 03:57:28;;;;;;;;;;;8.10;99.90;;;;;;7337590;19;109498;-72
2024/01/23 03:59:56;;;;;;;;;;;8.10;99.90;;;;;;7339120;19;108730;-71
2024/01/23 04:02:25;;;;;;;;;;;8.10;99.90;;;;;;7334717;19;109049;-71
2024/01/23 04:04:52;;;;;;;;;;;8.00;99.90;;;;;;7336154;19;111888;-71
2024/01/23 04:07:20;;;;;;;;;;;8.00;99.90;;;;;;7336690;19;110210;-71
2024/01/23 04:09:47;;;;;;;;;;;8.00;99.90;;;;;;7333543;19;108764;-71
2024/01/23 04:12:15;;;;;;;;;;;8.00;99.90;;;;;;7338694;19;109875;-71
2024/01/23 04:14:42;;;;;;;;;;;8.00;99.90;;;;;;7332962;19;111534;-71
2024/01/23 04:17:09;;;;;;;;;;;8.00;99.90;;;;;;7334165;19;108895;-70
2024/01/23 04:19:37;;;;;;;;;;;8.00;99.90;;;;;;7333807;19;110664;-69
2024/01/23 04:22:04;;;;;;;;;;;7.90;99.90;;;;;;7330431;19;108864;-70
2024/01/23 04:24:32;;;;;;;;;;;7.90;99.90;;;;;;7333196;19;110326;-70
2024/01/23 04:27:00;;;;;;;;;;;7.90;99.90;;;;;;7332347;19;108630;-71
2024/01/23 04:29:27;;;;;;;;;;;7.90;99.90;;;;;;7336314;19;108359;-71
2024/01/23 04:31:54;;;;;;;;;;;7.90;99.90;;;;;;7337148;19;109203;-70
2024/01/23 04:34:21;;;;;;;;;;;7.80;99.90;;;;;;7341317;19;110772;-70
2024/01/23 04:36:48;;;;;;;;;;;7.80;99.90;;;;;;7337597;19;109277;-70
2024/01/23 04:39:16;;;;;;;;;;;7.80;99.90;;;;;;7336210;19;108916;-70
2024/01/23 04:41:43;;;;;;;;;;;7.80;99.90;;;;;;7335172;19;109955;-70
2024/01/23 04:44:10;;;;;;;;;;;7.70;99.90;;;;;;7335054;19;110491;-70
2024/01/23 04:46:37;;;;;;;;;;;7.70;99.90;;;;;;7334664;19;108568;-69
2024/01/23 04:49:04;;;;;;;;;;;7.70;99.90;;;;;;7336777;19;110068;-70
2024/01/23 04:51:32;;;;;;;;;;;7.70;99.90;;;;;;7335530;19;110979;-70
2024/01/23 04:53:59;;;;;;;;;;;7.60;99.90;;;;;;7342444;19;108893;-70
2024/01/23 04:56:26;;;;;;;;;;;7.60;99.90;;;;;;7331908;19;110819;-71
2024/01/23 04:58:53;;;;;;;;;;;7.60;99.90;;;;;;7336891;19;108622;-70
2024/01/23 05:01:21;;;;;;;;;;;7.60;99.90;;;;;;7333889;19;113745;-70
2024/01/23 05:03:48;;;;;;;;;;;7.50;99.90;;;;;;7331593;19;110476;-70
2024/01/23 05:06:15;;;;;;;;;;;7.50;99.90;;;;;;7334660;19;112313;-70
2024/01/23 05:08:42;;;;;;;;;;;7.50;99.90;;;;;;7333741;19;109752;-70
2024/01/23 05:11:09;;;;;;;;;;;7.40;99.90;;;;;;7335458;19;110086;-70
2024/01/23 05:13:36;;;;;;;;;;;7.40;99.90;;;;;;7334524;19;108753;-71
2024/01/23 05:16:04;;;;;;;;;;;7.40;99.90;;;;;;7339004;19;109480;-70
2024/01/23 05:18:31;;;;;;;;;;;7.40;99.90;;;;;;7332067;19;108947;-71
2024/01/23 05:20:58;;;;;;;;;;;7.40;99.90;;;;;;7333478;19;109205;-71
2024/01/23 05:23:28;;;;;;;;;;;7.40;99.90;;;;;;7332919;19;109787;-71
2024/01/23 05:25:55;;;;;;;;;;;7.30;99.90;;;;;;7336902;19;109378;-70
2024/01/23 05:28:22;;;;;;;;;;;7.30;99.90;;;;;;7329386;19;108789;-72
2024/01/23 05:30:49;;;;;;;;;;;7.30;99.90;;;;;;7333034;19;110470;-71
2024/01/23 05:33:16;;;;;;;;;;;7.30;99.90;;;;;;7328415;19;109300;-71
2024/01/23 05:35:43;;;;;;;;;;;7.20;99.90;;;;;;7330513;19;111534;-71
2024/01/23 05:38:10;;;;;;;;;;;7.20;99.90;;;;;;7332414;19;109199;-70
2024/01/23 05:40:37;;;;;;;;;;;7.20;99.90;;;;;;7335054;19;108293;-69
2024/01/23 05:43:04;;;;;;;;;;;7.20;99.90;;;;;;7335525;19;110660;-69
2024/01/23 05:45:31;;;;;;;;;;;7.20;99.90;;;;;;7335532;19;109254;-70
2024/01/23 05:47:59;;;;;;;;;;;7.20;99.90;;;;;;7336303;19;109239;-73
2024/01/23 05:50:26;;;;;;;;;;;7.20;99.90;;;;;;7335869;19;111358;-75
2024/01/23 05:52:53;;;;;;;;;;;7.20;99.90;;;;;;7340591;19;109732;-76
2024/01/23 05:55:21;;;;;;;;;;;7.20;99.90;;;;;;7334546;19;109085;-75
2024/01/23 05:57:48;;;;;;;;;;;7.20;99.90;;;;;;7338317;19;110112;-71
2024/01/23 06:00:15;;;;;;;;;;;7.20;99.90;;;;;;7344593;19;109824;-72
2024/01/23 06:02:42;;;;;;;;;;;7.10;99.90;;;;;;7339765;19;109111;-72
2024/01/23 06:05:09;;;;;;;;;;;7.10;99.90;;;;;;7339615;19;108975;-71
2024/01/23 06:07:40;;;;;;;;;;;7.10;99.90;;;;;;7336570;19;111835;-70
2024/01/23 06:10:09;;;;;;;;;;;7.10;99.90;;;;;;7340415;19;110112;-70
2024/01/23 06:12:36;;;;;;;;;;;7.10;99.90;;;;;;7337889;19;110376;-71
2024/01/23 06:15:04;;;;;;;;;;;7.10;99.90;;;;;;7338347;19;110546;-70
2024/01/23 06:17:31;;;;;;;;;;;7.10;99.90;;;;;;7338417;19;109163;-70
2024/01/23 06:20:01;;;;;;;;;;;7.10;99.90;;;;;;7340998;19;108842;-70
2024/01/23 06:22:31;;;;;;;;;;;7.10;99.90;;;;;;7341955;19;109146;-69
2024/01/23 06:25:02;;;;;;;;;;;7.10;99.90;;;;;;7335191;19;108586;-71
2024/01/23 06:27:30;;;;;;;;;;;7.00;99.90;;;;;;7337611;19;109813;-69
2024/01/23 06:29:57;;;;;;;;;;;7.10;99.90;;;;;;7339999;19;109045;-70
2024/01/23 06:32:24;;;;;;;;;;;7.00;99.90;;;;;;7336740;19;109817;-70
2024/01/23 06:34:52;;;;;;;;;;;7.00;99.90;;;;;;7337013;19;109456;-71
2024/01/23 06:37:20;;;;;;;;;;;7.00;99.90;;;;;;7339388;19;109288;-70
2024/01/23 06:39:47;;;;;;;;;;;7.00;99.90;;;;;;7337392;19;109412;-71
2024/01/23 06:42:14;;;;;;;;;;;7.00;99.90;;;;;;7343861;19;109033;-71
2024/01/23 06:44:41;;;;;;;;;;;7.00;99.90;;;;;;7340139;19;110848;-70
2024/01/23 06:47:08;;;;;;;;;;;6.90;99.90;;;;;;7334088;19;109694;-69
2024/01/23 06:49:36;;;;;;;;;;;6.90;99.90;;;;;;7334899;19;111108;-70
2024/01/23 06:52:05;;;;;;;;;;;6.90;99.90;;;;;;7334003;19;108482;-69
2024/01/23 06:54:33;;;;;;;;;;;6.90;99.90;;;;;;7338781;19;109279;-69
2024/01/23 06:57:00;;;;;;;;;;;6.90;99.90;;;;;;7331868;19;109083;-70
2024/01/23 06:59:27;;;;;;;;;;;6.90;99.90;;;;;;7335137;19;108454;-70
2024/01/23 07:01:54;;;;;;;;;;;6.90;99.90;;;;;;7337762;19;111140;-71
2024/01/23 07:04:22;;;;;;;;;;;6.80;99.90;;;;;;7340697;19;110311;-71
2024/01/23 07:06:50;;;;;;;;;;;6.80;99.90;;;;;;7338966;19;108597;-73
2024/01/23 07:09:17;;;;;;;;;;;6.80;99.90;;;;;;7336418;19;110009;-70
2024/01/23 07:11:45;;;;;;;;;;;6.80;99.90;;;;;;7341320;19;108953;-71
2024/01/23 07:14:12;;;;;;;;;;;6.80;99.90;;;;;;7336076;19;109387;-73
2024/01/23 07:16:39;;;;;;;;;;;6.80;99.90;;;;;;7337237;19;109833;-72
2024/01/23 07:19:06;;;;;;;;;;;6.80;99.90;;;;;;7338066;19;108508;-69
2024/01/23 07:21:33;;;;;;;;;;;6.80;99.90;;;;;;7337816;19;109079;-69
2024/01/23 07:24:03;;;;;;;;;;;6.80;99.90;;;;;;7333023;19;109117;-70
2024/01/23 07:26:30;;;;;;;;;;;6.80;99.90;;;;;;7343744;19;108715;-69
2024/01/23 07:28:58;;;;;;;;;;;6.80;99.90;;;;;;7336548;19;110633;-70
2024/01/23 07:31:28;;;;;;;;;;;6.80;99.90;;;;;;7335794;19;109598;-70
2024/01/23 07:33:55;;;;;;;;;;;6.70;99.90;;;;;;7337308;19;109606;-69
2024/01/23 07:36:22;;;;;;;;;;;6.80;99.90;;;;;;7336270;19;111572;-71
2024/01/23 07:38:49;;;;;;;;;;;6.70;99.90;;;;;;7338775;19;109042;-70
2024/01/23 07:41:17;;;;;;;;;;;6.70;99.90;;;;;;7334548;19;108719;-70
2024/01/23 07:43:44;;;;;;;;;;;6.70;99.90;;;;;;7336969;19;109715;-71
2024/01/23 07:46:11;;;;;;;;;;;6.80;99.90;;;;;;7331496;19;108656;-71
2024/01/23 07:48:39;;;;;;;;;;;6.70;99.90;;;;;;7339771;19;108642;-70
2024/01/23 07:51:06;;;;;;;;;;;6.80;99.90;;;;;;7334507;19;110649;-69
2024/01/23 07:53:33;;;;;;;;;;;6.70;99.90;;;;;;7333081;19;110092;-70
2024/01/23 07:56:00;;;;;;;;;;;6.70;99.90;;;;;;7334504;19;110113;-70
2024/01/23 07:58:28;;;;;;;;;;;6.70;99.90;;;;;;7334003;19;109318;-70
2024/01/23 08:00:55;;;;;;;;;;;6.70;99.90;;;;;;7332263;19;108346;-71
2024/01/23 08:03:22;;;;;;;;;;;6.70;99.90;;;;;;7332451;19;109735;-71
2024/01/23 08:05:49;;;;;;;;;;;6.70;99.90;;;;;;7333790;19;110218;-70
2024/01/23 08:08:16;;;;;;;;;;;6.80;99.90;;;;;;7334147;19;108547;-69
2024/01/23 08:10:44;;;;;;;;;;;6.80;99.90;;;;;;7337865;19;109451;-71
2024/01/23 08:13:11;;;;;;;;;;;6.80;99.90;;;;;;7330101;19;108793;-71
2024/01/23 08:15:38;;;;;;;;;;;6.80;99.90;;;;;;7334799;19;109652;-69
2024/01/23 08:18:06;;;;;;;;;;;6.80;99.90;;;;;;7337565;19;109025;-74
2024/01/23 08:20:33;;;;;;;;;;;6.90;99.90;;;;;;7330675;19;110879;-70
2024/01/23 08:23:01;;;;;;;;;;;6.90;99.90;;;;;;7332309;19;109493;-70
2024/01/23 08:25:29;;;;;;;;;;;7.00;99.90;;;;;;7335069;19;109046;-70
2024/01/23 08:27:56;;;;;;;;;;;7.00;99.90;;;;;;7332501;19;109469;-69
2024/01/23 08:30:23;;;;;;;;;;;7.10;99.90;;;;;;7332914;19;110660;-69
2024/01/23 08:32:50;;;;;;;;;;;7.10;99.90;;;;;;7339035;19;109145;-69
2024/01/23 08:35:17;;;;;;;;;;;7.10;99.90;;;;;;7329228;19;110596;-69
2024/01/23 08:37:44;;;;;;;;;;;7.20;99.90;;;;;;7334888;19;109027;-68
2024/01/23 08:40:12;;;;;;;;;;;7.20;99.90;;;;;;7334865;19;109838;-70
2024/01/23 08:42:39;;;;;;;;;;;7.20;99.90;;;;;;7333396;19;109214;-70
2024/01/23 08:45:06;;;;;;;;;;;7.20;99.90;;;;;;7334694;19;108491;-70
2024/01/23 08:47:34;;;;;;;;;;;7.20;99.90;;;;;;7332070;19;110271;-69
2024/01/23 08:50:01;;;;;;;;;;;7.20;99.90;;;;;;7331218;19;109386;-69
2024/01/23 08:52:28;;;;;;;;;;;7.20;99.90;;;;;;7337208;19;109334;-69
2024/01/23 08:54:55;;;;;;;;;;;7.30;99.90;;;;;;7334421;19;110223;-69
2024/01/23 08:57:23;;;;;;;;;;;7.30;99.90;;;;;;7334367;19;108727;-69
2024/01/23 08:59:51;;;;;;;;;;;7.20;99.90;;;;;;7332377;19;110636;-68
2024/01/23 09:02:18;;;;;;;;;;;7.30;99.90;;;;;;7333525;19;110207;-69
2024/01/23 09:04:47;;;;;;;;;;;7.30;99.90;;;;;;7329612;19;108640;-68
2024/01/23 09:07:16;;;;;;;;;;;7.40;99.90;;;;;;7337932;19;108693;-68
2024/01/23 09:09:44;;;;;;;;;;;7.40;99.90;;;;;;7332467;19;109151;-69
2024/01/23 09:12:11;;;;;;;;;;;7.50;99.90;;;;;;7330978;19;110125;-70
2024/01/23 09:14:39;;;;;;;;;;;7.50;99.90;;;;;;7336855;19;109035;-70
2024/01/23 09:17:06;;;;;;;;;;;7.60;99.90;;;;;;7332875;19;108462;-71
2024/01/23 09:19:33;;;;;;;;;;;7.70;99.90;;;;;;7338357;19;110134;-71
2024/01/23 09:22:01;;;;;;;;;;;7.70;99.90;;;;;;7333996;19;109759;-70
2024/01/23 09:24:30;;;;;;;;;;;7.70;99.90;;;;;;7332458;19;108833;-70
2024/01/23 09:27:01;;;;;;;;;;;7.80;99.90;;;;;;7334111;19;108983;-70
2024/01/23 09:29:28;;;;;;;;;;;7.90;99.90;;;;;;7333312;19;110165;-70
2024/01/23 09:31:56;;;;;;;;;;;7.90;99.90;;;;;;7331745;19;109263;-70
2024/01/23 09:34:23;;;;;;;;;;;8.00;99.90;;;;;;7331619;19;109361;-70
2024/01/23 09:36:51;;;;;;;;;;;8.10;99.90;;;;;;7336904;19;109796;-71
2024/01/23 09:39:19;;;;;;;;;;;8.10;99.90;;;;;;7333031;19;109667;-70
2024/01/23 09:41:49;;;;;;;;;;;8.20;99.90;;;;;;7334571;19;108878;-72
2024/01/23 09:44:20;;;;;;;;;;;8.30;99.90;;;;;;7331964;19;108506;-71
2024/01/23 09:46:50;;;;;;;;;;;8.30;99.90;;;;;;7329761;19;108753;-72
2024/01/23 09:49:17;;;;;;;;;;;8.40;99.90;;;;;;7333199;19;109449;-69
2024/01/23 09:51:48;;;;;;;;;;;8.40;99.90;;;;;;7332792;19;109548;-69
2024/01/23 09:54:15;;;;;;;;;;;8.50;99.90;;;;;;7332589;19;108661;-64
2024/01/23 09:56:43;;;;;;;;;;;8.60;99.90;;;;;;7327480;19;109788;-64
2024/01/23 09:59:10;;;;;;;;;;;8.70;99.90;;;;;;7336247;19;108697;-65
2024/01/23 10:01:37;;;;;;;;;;;8.70;99.90;;;;;;7329670;19;109318;-64
2024/01/23 10:04:05;;;;;;;;;;;8.80;99.90;;;;;;7327139;19;109506;-64
2024/01/23 10:06:32;;;;;;;;;;;8.80;99.90;;;;;;7328546;19;109052;-64
2024/01/23 10:09:00;;;;;;;;;;;8.90;99.90;;;;;;7329215;19;110779;-64
2024/01/23 10:11:28;;;;;;;;;;;8.90;99.90;;;;;;7332132;19;108973;-64
2024/01/23 10:13:58;;;;;;;;;;;8.90;99.90;;;;;;7329859;19;109278;-64
2024/01/23 10:16:26;;;;;;;;;;;9.00;99.90;;;;;;7334557;19;110160;-65
2024/01/23 10:18:54;;;;;;;;;;;9.00;99.90;;;;;;7334528;19;108949;-65
2024/01/23 10:21:21;;;;;;;;;;;9.10;99.90;;;;;;7337497;19;109040;-64
2024/01/23 10:23:49;;;;;;;;;;;9.10;99.90;;;;;;7329739;19;109340;-66
2024/01/23 10:26:16;;;;;;;;;;;9.10;99.90;;;;;;7337238;19;108733;-66
2024/01/23 10:28:44;;;;;;;;;;;9.10;99.90;;;;;;7340065;19;110316;-64
2024/01/23 10:31:11;;;;;;;;;;;9.20;99.90;;;;;;7338748;19;109195;-62
2024/01/23 10:33:38;;;;;;;;;;;9.20;99.90;;;;;;7339253;19;108619;-65
2024/01/23 10:36:09;;;;;;;;;;;9.30;99.90;;;;;;7338958;19;110619;-64
2024/01/23 10:38:37;;;;;;;;;;;9.30;99.90;;;;;;7339312;19;108719;-64
2024/01/23 10:41:04;;;;;;;;;;;9.40;99.90;;;;;;7339558;19;109061;-65
2024/01/23 10:43:32;;;;;;;;;;;9.50;99.90;;;;;;7343955;19;109998;-65
2024/01/23 10:46:02;;;;;;;;;;;9.60;99.90;;;;;;7340308;19;110318;-64
2024/01/23 10:48:30;;;;;;;;;;;9.60;99.90;;;;;;7338011;19;110277;-64
2024/01/23 10:51:05;;;;;;;;;;;9.70;99.90;;;;;;7338758;19;108426;-64
2024/01/23 10:53:43;;;;;;;;;;;9.70;99.90;;;;;;7337542;19;109380;-64
2024/01/23 10:56:13;;;;;;;;;;;9.70;99.90;;;;;;7337723;19;110160;-61
2024/01/23 10:58:42;;;;;;;;;;;9.80;99.90;;;;;;7337380;19;108753;-62
2024/01/23 11:01:11;;;;;;;;;;;9.80;99.90;;;;;;7335426;19;111963;-65
2024/01/23 11:03:38;;;;;;;;;;;9.80;99.90;;;;;;7341867;19;110656;-65
2024/01/23 11:06:12;;;;;;;;;;;9.80;99.90;;;;;;7336014;19;113213;-64
2024/01/23 11:08:44;;;;;;;;;;;9.80;99.90;;;;;;7337325;19;110405;-64
2024/01/23 11:11:17;;;;;;;;;;;9.80;99.90;;;;;;7337395;19;108662;-65
2024/01/23 11:13:55;;;;;;;;;;;9.90;99.90;;;;;;7337425;19;111825;-65
2024/01/23 11:16:22;;;;;;;;;;;9.90;99.90;;;;;;7335495;19;109827;-65
2024/01/23 11:18:52;;;;;;;;;;;10.00;99.90;;;;;;7332073;19;110267;-62
2024/01/23 11:21:21;;;;;;;;;;;10.00;99.90;;;;;;7338849;19;108682;-65
2024/01/23 11:23:57;;;;;;;;;;;10.00;99.90;;;;;;7336655;19;110149;-70
2024/01/23 11:26:26;;;;;;;;;;;10.00;99.90;;;;;;7342420;19;108872;-65
2024/01/23 11:29:01;;;;;;;;;;;10.00;99.90;;;;;;7337858;19;109248;-70
2024/01/23 11:31:35;;;;;;;;;;;10.10;99.90;;;;;;7339509;19;108301;-66
2024/01/23 11:34:20;;;;;;;;;;;10.20;99.90;;;;;;7337658;19;108480;-75
2024/01/23 11:36:51;;;;;;;;;;;10.20;99.90;;;;;;7332066;19;109598;-67
2024/01/23 11:39:23;;;;;;;;;;;10.30;99.90;;;;;;7338535;19;108900;-64
2024/01/23 11:41:52;;;;;;;;;;;10.30;99.90;;;;;;7336946;19;112663;-64
2024/01/23 11:44:21;;;;;;;;;;;10.40;99.90;;;;;;7336703;19;111377;-64
2024/01/23 11:46:49;;;;;;;;;;;10.40;99.90;;;;;;7335008;19;108342;-64
2024/01/23 11:49:16;;;;;;;;;;;10.50;99.90;;;;;;7339781;19;108877;-65
2024/01/23 11:51:43;;;;;;;;;;;10.60;99.90;;;;;;7334087;19;108900;-64
2024/01/23 11:54:11;;;;;;;;;;;10.60;99.90;;;;;;7335747;19;108613;-64
2024/01/23 11:56:41;;;;;;;;;;;10.70;99.90;;;;;;7334218;19;109658;-64
2024/01/23 11:59:09;;;;;;;;;;;10.70;99.90;;;;;;7334147;19;108780;-64
2024/01/23 12:01:38;;;;;;;;;;;10.70;99.90;;;;;;7336367;19;109528;-64
2024/01/23 12:04:06;;;;;;;;;;;10.70;99.90;;;;;;7332302;19;109837;-64
2024/01/23 12:06:33;;;;;;;;;;;10.70;99.90;;;;;;7335732;19;109042;-63
2024/01/23 12:09:00;;;;;;;;;;;10.70;99.90;;;;;;7333885;19;108853;-64
2024/01/23 12:11:29;;;;;;;;;;;10.80;99.90;;;;;;7339400;19;109166;-64
2024/01/23 12:13:57;;;;;;;;;;;10.80;99.90;;;;;;7331642;19;109149;-64
2024/01/23 12:16:25;;;;;;;;;;;10.80;99.90;;;;;;7333397;19;110109;-64
2024/01/23 12:18:58;;;;;;;;;;;10.80;99.90;;;;;;7336722;19;108667;-64
2024/01/23 12:21:27;;;;;;;;;;;10.80;99.90;;;;;;7333619;19;108433;-64
2024/01/23 12:23:56;;;;;;;;;;;10.90;99.90;;;;;;7330520;19;112420;-64
2024/01/23 12:26:26;;;;;;;;;;;10.90;99.90;;;;;;7332041;19;109346;-64
2024/01/23 12:28:53;;;;;;;;;;;10.90;99.90;;;;;;7334798;19;108843;-64
2024/01/23 12:31:21;;;;;;;;;;;10.90;99.90;;;;;;7331727;19;110165;-64
2024/01/23 12:33:49;;;;;;;;;;;10.90;99.90;;;;;;7343418;19;108638;-63
2024/01/23 12:36:19;;;;;;;;;;;10.90;99.90;;;;;;7333197;19;111034;-64
2024/01/23 12:38:46;;;;;;;;;;;10.90;99.90;;;;;;7329792;19;109320;-63
2024/01/23 12:41:13;;;;;;;;;;;11.00;99.90;;;;;;7333271;19;108777;-64
2024/01/23 12:43:40;;;;;;;;;;;11.00;99.90;;;;;;7334526;19;109222;-64
2024/01/23 12:46:13;;;;;;;;;;;11.00;99.90;;;;;;7334464;19;109750;-64
2024/01/23 12:48:41;;;;;;;;;;;11.00;99.90;;;;;;7334118;19;108681;-64
2024/01/23 12:51:09;;;;;;;;;;;11.00;99.90;;;;;;7331172;19;109289;-64
2024/01/23 12:53:36;;;;;;;;;;;11.00;99.90;;;;;;7335109;19;108736;-64
2024/01/23 12:56:04;;;;;;;;;;;11.00;99.90;;;;;;7339579;19;108973;-64
2024/01/23 12:58:31;;;;;;;;;;;11.00;99.90;;;;;;7335026;19;109082;-64
2024/01/23 13:00:59;;;;;;;;;;;11.00;99.90;;;;;;7334017;19;110514;-64
2024/01/23 13:03:27;;;;;;;;;;;11.00;99.90;;;;;;7334997;19;110472;-63
2024/01/23 13:05:54;;;;;;;;;;;11.00;99.90;;;;;;7334153;19;108728;-64
2024/01/23 13:08:24;;;;;;;;;;;11.00;99.90;;;;;;7334706;19;109864;-64
2024/01/23 13:10:51;;;;;;;;;;;11.00;99.90;;;;;;7335645;19;109346;-64
2024/01/23 13:13:19;;;;;;;;;;;11.00;99.90;;;;;;7330960;19;110062;-64
2024/01/23 13:15:48;;;;;;;;;;;10.90;99.90;;;;;;7339158;19;109608;-64
2024/01/23 13:18:17;;;;;;;;;;;11.00;99.90;;;;;;7334412;19;108380;-64
2024/01/23 13:20:46;;;;;;;;;;;10.90;99.90;;;;;;7330828;19;108367;-64
2024/01/23 13:23:13;;;;;;;;;;;11.00;99.90;;;;;;7334554;19;109513;-64
2024/01/23 13:25:44;;;;;;;;;;;10.90;99.90;;;;;;7332476;19;109700;-64
2024/01/23 13:28:11;;;;;;;;;;;10.90;99.90;;;;;;7334100;19;108646;-64
2024/01/23 13:30:38;;;;;;;;;;;10.80;99.90;;;;;;7332620;19;109305;-63
2024/01/23 13:33:06;;;;;;;;;;;10.80;99.90;;;;;;7333814;19;108884;-64
2024/01/23 13:35:33;;;;;;;;;;;10.80;99.90;;;;;;7332172;19;108520;-63
2024/01/23 13:38:00;;;;;;;;;;;10.70;99.90;;;;;;7339178;19;110802;-64
2024/01/23 13:40:30;;;;;;;;;;;10.70;99.90;;;;;;7332518;19;108868;-63
2024/01/23 13:42:57;;;;;;;;;;;10.70;99.90;;;;;;7331645;19;109087;-64
2024/01/23 13:45:26;;;;;;;;;;;10.80;99.90;;;;;;7332846;19;109354;-64
2024/01/23 13:47:55;;;;;;;;;;;10.70;99.90;;;;;;7332822;19;109218;-64
2024/01/23 13:50:22;;;;;;;;;;;10.70;99.90;;;;;;7333444;19;109441;-64
2024/01/23 13:52:50;;;;;;;;;;;10.70;99.90;;;;;;7334391;19;108447;-64
2024/01/23 13:55:18;;;;;;;;;;;10.70;99.90;;;;;;7331883;19;109311;-64
2024/01/23 13:57:46;;;;;;;;;;;10.70;99.90;;;;;;7331839;19;109936;-63
2024/01/23 14:00:14;;;;;;;;;;;10.70;99.90;;;;;;7340360;19;108430;-64
2024/01/23 14:02:42;;;;;;;;;;;10.70;99.90;;;;;;7340305;19;109451;-62
2024/01/23 14:05:10;;;;;;;;;;;10.70;99.90;;;;;;7338680;19;108467;-63
2024/01/23 14:07:40;;;;;;;;;;;10.70;99.90;;;;;;7339479;19;109202;-62
2024/01/23 14:10:16;;;;;;;;;;;10.70;99.90;;;;;;7339355;19;109163;-62
2024/01/23 14:12:49;;;;;;;;;;;10.70;99.90;;;;;;7339401;19;108903;-64
2024/01/23 14:15:18;;;;;;;;;;;10.70;99.90;;;;;;7337119;19;108798;-63
2024/01/23 14:17:49;;;;;;;;;;;10.60;99.90;;;;;;7339606;19;109893;-65
2024/01/23 14:20:17;;;;;;;;;;;10.70;99.90;;;;;;7338656;19;108873;-65
2024/01/23 14:22:45;;;;;;;;;;;10.60;99.90;;;;;;7339650;19;109519;-64
2024/01/23 14:25:16;;;;;;;;;;;10.60;99.90;;;;;;7334322;19;109913;-63
2024/01/23 14:27:45;;;;;;;;;;;10.60;99.90;;;;;;7337415;19;109036;-63
2024/01/23 14:30:13;;;;;;;;;;;10.60;99.90;;;;;;7335169;19;110297;-63